Time;durP1;ratioP1;P1;durP2;ratioP2;P2;SDS_P1;SDS_P2;PMS_P1;PMS_P2;Temp;Humidity;BMP_temperature;BMP_pressure;BME280_temperature;BME280_humidity;BME280_pressure;Samples;Min_cycle;Max_cycle;Signal;HPM_P1;HPM_P2
2023/06/17 00:02:01;;;;;;;15.32;5.60;;;;;;;23.39;100.00;100169.97;20954416;28;20108;-83
2023/06/17 00:12:31;;;;;;;18.52;6.78;;;;;;;23.45;100.00;100167.84;20962355;28;20036;-83
2023/06/17 00:22:54;;;;;;;17.98;6.70;;;;;;;23.47;100.00;100164.22;20958292;28;20047;-84
2023/06/17 00:32:59;;;;;;;17.63;6.63;;;;;;;23.32;100.00;100160.41;20977405;28;20045;-84
2023/06/17 00:43:22;;;;;;;19.92;6.32;;;;;;;23.45;100.00;100154.38;20962132;28;20056;-84
2023/06/17 00:53:46;;;;;;;14.15;5.65;;;;;;;23.29;100.00;100147.97;20961838;28;20064;-85
2023/06/17 01:04:08;;;;;;;16.10;5.43;;;;;;;23.14;100.00;100146.00;20966773;28;20127;-84
2023/06/17 01:14:40;;;;;;;15.00;5.28;;;;;;;23.02;100.00;100144.75;20956822;28;20092;-84
2023/06/17 01:25:06;;;;;;;15.80;5.40;;;;;;;22.68;100.00;100133.69;20954375;28;20089;-84
2023/06/17 01:35:32;;;;;;;16.35;6.32;;;;;;;22.40;100.00;100150.16;20960600;28;20067;-83
2023/06/17 01:45:40;;;;;;;17.55;6.95;;;;;;;22.48;100.00;100148.00;20975119;28;20064;-84
2023/06/17 01:56:03;;;;;;;12.95;5.70;;;;;;;22.40;100.00;100155.53;20984051;28;20080;-83
2023/06/17 02:06:27;;;;;;;22.83;7.60;;;;;;;22.24;100.00;100149.06;20966059;28;20041;-83
2023/06/17 02:16:32;;;;;;;18.20;7.20;;;;;;;22.24;100.00;100149.94;20985261;28;20055;-84
2023/06/17 02:26:57;;;;;;;18.13;6.65;;;;;;;22.08;100.00;100154.19;20989354;28;20067;-84
2023/06/17 02:37:19;;;;;;;19.98;7.03;;;;;;;21.99;100.00;100161.78;20981360;28;20048;-84
2023/06/17 02:47:43;;;;;;;21.13;7.15;;;;;;;21.78;100.00;100161.69;21002930;28;20484;-83
2023/06/17 02:58:06;;;;;;;15.80;6.30;;;;;;;21.70;100.00;100162.91;20968862;28;20503;-83
2023/06/17 03:08:39;;;;;;;22.00;6.80;;;;;;;21.78;100.00;100153.63;20967854;28;20052;-83
2023/06/17 03:19:06;;;;;;;16.42;5.95;;;;;;;21.72;100.00;100153.88;20962311;28;20080;-83
2023/06/17 03:29:40;;;;;;;21.02;9.13;;;;;;;21.96;100.00;100160.09;20980088;28;20052;-85
2023/06/17 03:39:43;;;;;;;12.60;4.93;;;;;;;22.24;100.00;100165.22;20968236;28;20146;-84
2023/06/17 03:50:13;;;;;;;9.73;4.35;;;;;;;22.62;100.00;100169.81;20969424;28;20045;-83
2023/06/17 04:00:36;;;;;;;12.80;4.55;;;;;;;23.02;100.00;100165.41;20959541;28;20048;-84
2023/06/17 04:10:41;;;;;;;12.07;3.75;;;;;;;23.37;100.00;100167.34;20974192;28;20044;-83
2023/06/17 04:21:05;;;;;;;14.10;3.50;;;;;;;23.97;100.00;100164.50;20961521;28;20142;-84
2023/06/17 04:31:41;;;;;;;12.57;2.97;;;;;;;24.85;100.00;100178.94;20982712;28;20049;-84
2023/06/17 04:42:05;;;;;;;13.30;2.95;;;;;;;25.30;100.00;100183.75;20973744;28;20048;-80
2023/06/17 04:52:30;;;;;;;8.57;2.95;;;;;;;25.83;100.00;100202.44;20943168;28;20049;-78
2023/06/17 05:02:54;;;;;;;6.47;1.90;;;;;;;26.45;100.00;100200.69;20962306;28;20040;-80
2023/06/17 05:13:19;;;;;;;5.78;1.20;;;;;;;27.15;100.00;100199.16;20955196;28;20412;-80
2023/06/17 05:23:21;;;;;;;8.15;1.50;;;;;;;27.73;100.00;100199.09;20992849;28;20455;-80
2023/06/17 05:33:48;;;;;;;7.10;1.30;;;;;;;28.24;100.00;100218.41;20962520;28;20041;-80
2023/06/17 05:44:11;;;;;;;6.87;1.17;;;;;;;28.68;99.92;100212.72;20972560;28;20053;-80
2023/06/17 05:54:38;;;;;;;3.92;1.00;;;;;;;29.32;93.05;100237.22;20971721;28;20423;-81
2023/06/17 06:05:03;;;;;;;7.23;1.10;;;;;;;30.06;86.29;100230.97;20959510;28;20052;-80
2023/06/17 06:15:27;;;;;;;3.15;1.10;;;;;;;30.96;73.21;100239.69;20944166;28;20070;-81
2023/06/17 06:25:50;;;;;;;3.80;0.88;;;;;;;32.03;60.82;100243.84;20960925;28;20136;-81
2023/06/17 06:36:16;;;;;;;4.25;1.05;;;;;;;32.20;52.68;100237.03;20942987;28;20069;-80
2023/06/17 06:46:40;;;;;;;3.92;0.90;;;;;;;32.38;47.07;100230.00;20949842;28;20060;-80
2023/06/17 06:57:04;;;;;;;1.92;0.90;;;;;;;32.67;45.91;100223.00;20970843;28;20052;-80
2023/06/17 07:07:27;;;;;;;2.78;0.90;;;;;;;32.91;46.25;100219.16;20953730;28;20052;-82
2023/06/17 07:17:34;;;;;;;4.95;1.05;;;;;;;33.06;44.91;100229.66;20992123;28;20052;-82
2023/06/17 07:27:59;;;;;;;6.03;1.25;;;;;;;32.14;46.76;100232.94;20981654;28;20054;-83
2023/06/17 07:38:24;;;;;;;5.43;1.13;;;;;;;31.57;48.08;100250.25;20973407;28;20048;-81
2023/06/17 07:48:46;;;;;;;4.95;1.05;;;;;;;32.91;46.25;100252.84;20984248;28;20476;-81
2023/06/17 07:59:12;;;;;;;3.22;1.08;;;;;;;33.70;46.55;100256.88;21008657;28;20059;-81
2023/06/17 08:09:35;;;;;;;9.40;1.98;;;;;;;33.56;47.37;100262.69;20989039;28;20051;-82
2023/06/17 08:19:40;;;;;;;6.70;1.92;;;;;;;31.90;50.78;100284.09;20993277;28;20048;-82
2023/06/17 08:30:03;;;;;;;10.83;2.30;;;;;;;31.70;56.93;100284.81;20976493;28;20047;-81
2023/06/17 08:40:28;;;;;;;14.15;4.07;;;;;;;31.46;70.37;100284.84;20975853;28;20164;-80
2023/06/17 08:50:51;;;;;;;8.10;2.00;;;;;;;30.56;76.03;100294.50;20994789;28;20048;-81
2023/06/17 09:01:16;;;;;;;9.77;2.30;;;;;;;30.10;80.58;100294.28;20979564;28;20053;-82
2023/06/17 09:11:38;;;;;;;10.85;2.42;;;;;;;29.60;88.00;100306.88;20973447;28;20052;-80
2023/06/17 09:22:07;;;;;;;12.35;2.70;;;;;;;30.25;96.51;100295.88;20968730;28;20398;-79
2023/06/17 09:32:10;;;;;;;9.48;2.55;;;;;;;30.63;94.68;100300.38;20979518;28;20221;-80
2023/06/17 09:42:35;;;;;;;10.02;2.80;;;;;;;29.62;95.57;100301.34;20984712;28;20408;-79
2023/06/17 09:52:41;;;;;;;10.25;2.65;;;;;;;30.45;96.18;100297.13;21002999;28;20127;-80
2023/06/17 10:03:06;;;;;;;11.18;2.17;;;;;;;29.96;93.00;100298.00;20987665;28;20079;-79
2023/06/17 10:13:32;;;;;;;8.90;2.13;;;;;;;29.46;95.69;100300.69;20987850;28;20389;-80
2023/06/17 10:23:59;;;;;;;15.77;3.22;;;;;;;29.01;99.54;100304.72;20966211;28;20094;-81
2023/06/17 10:34:23;;;;;;;12.77;2.20;;;;;;;30.10;99.04;100313.34;20977932;28;20052;-81
2023/06/17 10:44:51;;;;;;;10.65;2.05;;;;;;;30.83;96.59;100302.47;20969399;28;20547;-81
2023/06/17 10:55:14;;;;;;;15.38;2.85;;;;;;;31.81;92.95;100290.28;20975986;28;20053;-82
2023/06/17 11:05:43;;;;;;;11.50;2.30;;;;;;;33.09;77.69;100281.34;20992079;28;20093;-83
2023/06/17 11:16:07;;;;;;;12.73;2.85;;;;;;;32.95;71.26;100262.53;20963114;28;20519;-82
2023/06/17 11:26:31;;;;;;;9.25;2.25;;;;;;;33.44;70.84;100270.13;20972663;28;20048;-82
2023/06/17 11:36:55;;;;;;;11.80;1.93;;;;;;;32.64;69.65;100258.75;20954989;28;20055;-83
2023/06/17 11:47:32;;;;;;;9.13;2.03;;;;;;;31.88;72.14;100240.50;20981649;28;20090;-82
2023/06/17 11:57:55;;;;;;;12.20;2.30;;;;;;;31.64;71.79;100250.66;20972700;28;20063;-81
2023/06/17 12:08:20;;;;;;;11.23;2.53;;;;;;;31.60;70.28;100244.59;20951893;28;20049;-80
2023/06/17 12:18:50;;;;;;;14.55;1.90;;;;;;;32.26;65.22;100259.25;20992789;28;20144;-81
2023/06/17 12:29:15;;;;;;;11.32;2.25;;;;;;;32.52;59.84;100258.94;21006238;28;20052;-80
2023/06/17 12:39:17;;;;;;;11.60;2.00;;;;;;;32.44;60.42;100257.69;20968820;28;20059;-81
2023/06/17 12:49:41;;;;;;;11.50;2.17;;;;;;;32.52;60.62;100264.41;20970420;28;20052;-79
2023/06/17 13:00:06;;;;;;;11.75;2.30;;;;;;;33.88;51.92;100265.34;20943920;28;20079;-79
2023/06/17 13:10:15;;;;;;;10.30;1.33;;;;;;;33.47;49.73;100261.66;20963692;28;20048;-79
2023/06/17 13:20:38;;;;;;;16.20;2.10;;;;;;;33.40;48.99;100260.47;20983587;28;20060;-79
2023/06/17 13:31:04;;;;;;;9.02;1.80;;;;;;;32.93;49.28;100269.13;21014853;28;20048;-79
2023/06/17 13:41:16;;;;;;;;;;;;;;;32.39;47.54;100254.50;21007166;28;20077;-78
2023/06/17 13:51:40;;;;;;;11.50;1.85;;;;;;;32.87;48.85;100256.88;21002020;28;20443;-80
2023/06/17 14:02:02;;;;;;;10.38;2.13;;;;;;;32.65;51.42;100262.38;20956403;28;20150;-79
2023/06/17 14:12:26;;;;;;;10.55;2.00;;;;;;;32.01;55.90;100262.22;20981194;28;20063;-80
2023/06/17 14:22:59;;;;;;;13.98;3.13;;;;;;;32.68;53.67;100263.03;20981222;28;20078;-80
2023/06/17 14:33:18;;;;;;;11.95;2.55;;;;;;;32.95;52.14;100276.19;20984131;28;20592;-80
2023/06/17 14:43:41;;;;;;;15.55;3.65;;;;;;;31.96;57.86;100289.03;20971270;28;20437;-80
2023/06/17 15:04:46;;;;;;;10.15;2.88;;;;;;;32.47;50.58;100285.78;20888734;28;20056;-81
2023/06/17 15:15:09;;;;;;;13.65;3.13;;;;;;;31.15;52.71;100289.97;20948266;28;20045;-80
2023/06/17 15:25:35;;;;;;;11.32;2.83;;;;;;;30.66;55.27;100286.50;20956735;28;20060;-79
2023/06/17 15:35:59;;;;;;;10.80;2.63;;;;;;;30.36;51.82;100304.13;20970207;28;20059;-80
2023/06/17 15:46:22;;;;;;;8.13;2.78;;;;;;;29.80;53.19;100310.09;20962356;28;20072;-79
2023/06/17 15:56:46;;;;;;;11.07;3.40;;;;;;;29.58;54.28;100313.44;20955642;28;20044;-79
2023/06/17 16:07:11;;;;;;;12.50;3.30;;;;;;;29.20;58.67;100326.97;20948360;28;20477;-79
2023/06/17 16:17:37;;;;;;;13.18;3.90;;;;;;;28.51;67.45;100320.66;20988806;28;20048;-79
2023/06/17 16:28:00;;;;;;;16.30;5.10;;;;;;;28.12;73.62;100337.66;20975648;28;20047;-80
2023/06/17 16:38:24;;;;;;;14.35;4.78;;;;;;;27.79;81.57;100352.50;20986202;28;20439;-80
2023/06/17 16:48:46;;;;;;;13.88;4.28;;;;;;;27.27;92.44;100348.38;20978669;28;20488;-79
2023/06/17 16:59:10;;;;;;;11.52;4.63;;;;;;;26.91;96.79;100353.28;21004796;28;20053;-80
2023/06/17 17:09:33;;;;;;;17.15;5.15;;;;;;;26.54;98.80;100368.03;20988265;28;20106;-79
2023/06/17 17:19:56;;;;;;;17.40;5.18;;;;;;;26.29;100.00;100370.38;21017411;28;20047;-79
2023/06/17 17:30:19;;;;;;;13.23;4.93;;;;;;;26.12;100.00;100380.22;21006998;28;20401;-79
2023/06/17 17:40:43;;;;;;;14.18;4.80;;;;;;;25.97;100.00;100399.16;20992959;28;20084;-79
2023/06/17 17:51:06;;;;;;;19.20;4.75;;;;;;;25.84;100.00;100404.34;21015536;28;20064;-79
2023/06/17 18:01:31;;;;;;;17.48;5.55;;;;;;;25.65;100.00;100401.75;21005876;28;20139;-79
2023/06/17 18:11:53;;;;;;;19.58;8.48;;;;;;;25.46;100.00;100405.44;20982718;28;20048;-78
2023/06/17 18:22:17;;;;;;;18.95;5.47;;;;;;;25.33;100.00;100405.22;20958493;28;20048;-79
2023/06/17 18:32:40;;;;;;;13.07;4.75;;;;;;;25.27;100.00;100422.56;20959961;28;20307;-80
2023/06/17 18:43:04;;;;;;;15.18;4.63;;;;;;;25.24;100.00;100441.66;20989521;28;20048;-79
2023/06/17 18:53:27;;;;;;;20.83;7.93;;;;;;;25.00;100.00;100457.28;20998056;28;20052;-79
2023/06/17 19:03:52;;;;;;;14.13;6.07;;;;;;;24.90;100.00;100473.97;20965698;28;20048;-79
2023/06/17 19:14:15;;;;;;;20.52;5.53;;;;;;;24.88;100.00;100476.72;20991498;28;20051;-79
2023/06/17 19:24:39;;;;;;;18.40;6.13;;;;;;;24.78;100.00;100474.53;20982565;28;20053;-80
2023/06/17 19:35:03;;;;;;;20.25;5.07;;;;;;;24.67;100.00;100472.38;20959730;28;20044;-77
2023/06/17 19:45:28;;;;;;;13.32;4.85;;;;;;;24.45;100.00;100496.75;20938610;28;20510;-78
2023/06/17 19:55:51;;;;;;;12.35;4.57;;;;;;;24.21;100.00;100514.06;20956356;28;20048;-78
2023/06/17 20:06:15;;;;;;;17.23;5.40;;;;;;;24.11;100.00;100497.38;20972521;28;20048;-79
2023/06/17 20:16:37;;;;;;;15.32;5.38;;;;;;;24.08;100.00;100492.13;20977029;28;20552;-79
2023/06/17 20:27:01;;;;;;;13.50;4.75;;;;;;;24.03;100.00;100495.94;20988717;28;20044;-79
2023/06/17 20:37:24;;;;;;;17.95;5.10;;;;;;;23.88;100.00;100488.56;20959342;28;20053;-77
2023/06/17 20:47:48;;;;;;;12.98;4.90;;;;;;;23.65;100.00;100490.41;20964162;28;20048;-78
2023/06/17 20:58:10;;;;;;;13.10;4.63;;;;;;;23.44;100.00;100475.97;20994277;28;20397;-78
2023/06/17 21:08:35;;;;;;;14.20;5.20;;;;;;;23.35;100.00;100486.28;20980343;28;20056;-78
2023/06/17 21:18:57;;;;;;;14.85;4.47;;;;;;;23.24;100.00;100484.00;20958108;28;20696;-78
2023/06/17 21:29:01;;;;;;;10.70;4.32;;;;;;;23.17;100.00;100470.88;20952219;28;20063;-78
2023/06/17 21:39:24;;;;;;;14.15;4.43;;;;;;;22.98;100.00;100479.69;20969264;28;20072;-79
2023/06/17 21:49:49;;;;;;;11.70;4.57;;;;;;;22.93;100.00;100468.22;20980744;28;20068;-79
2023/06/17 22:00:17;;;;;;;9.93;4.65;;;;;;;22.85;100.00;100461.38;20979332;28;20080;-80
2023/06/17 22:10:30;;;;;;;9.70;3.90;;;;;;;22.55;100.00;100466.13;21026698;28;20032;-79
2023/06/17 22:20:53;;;;;;;8.77;3.90;;;;;;;22.56;100.00;100465.19;20992979;28;20053;-79
2023/06/17 22:31:17;;;;;;;9.65;3.95;;;;;;;22.56;100.00;100458.00;20970438;28;20048;-79
2023/06/17 22:41:39;;;;;;;10.18;3.67;;;;;;;22.35;100.00;100452.53;20972091;28;20048;-78
2023/06/17 22:52:03;;;;;;;12.60;3.25;;;;;;;22.27;100.00;100448.34;20984323;28;20087;-79
2023/06/17 23:02:26;;;;;;;5.75;2.75;;;;;;;22.26;100.00;100438.50;21004793;28;20396;-79
2023/06/17 23:12:49;;;;;;;9.00;3.03;;;;;;;22.18;100.00;100431.69;20982203;28;20102;-79
2023/06/17 23:23:12;;;;;;;9.25;3.10;;;;;;;21.96;100.00;100428.91;20979419;28;20063;-79
2023/06/17 23:33:38;;;;;;;9.32;3.10;;;;;;;21.82;100.00;100432.03;20987911;28;20052;-80
2023/06/17 23:43:44;;;;;;;7.25;2.75;;;;;;;21.47;100.00;100413.59;20987528;28;20544;-78
2023/06/17 23:54:08;;;;;;;7.63;2.95;;;;;;;21.64;100.00;100415.72;20988836;28;20071;-80
